Terminal Aerodrome Forecast
Issued by NWS St Louis, MO

Home | Current Version | Previous Version | Text Only | Print | Product List | Glossary On
Versions: 1 2 3 4 5 6 7 8 9 10 11 12 13 14 15 16 17 18 19 20 21 22 23 24 25 26
000
FTUS43 KLSX 301014 AAD
TAFCOU
TAF AMD
KCOU 301014Z 3010/0106 12015G25KT 6SM -SHRA BR OVC005
     FM301100 12014G22KT P6SM OVC005
     FM301500 14012KT P6SM OVC010
     FM301800 20009KT P6SM BKN035
     FM010000 33006KT P6SM SCT040 BKN120=

USA.gov is the U.S. government's official web portal to all federal, state and local government web resources and services.